sensor_id;sensor_type;location;lat;lon;timestamp;temperature;humidity
72320;SHT30;60269;52.502;16.732;2023-03-14T00:02:11;11.88;80.65
72320;SHT30;60269;52.502;16.732;2023-03-14T00:05:43;11.88;81.08
72320;SHT30;60269;52.502;16.732;2023-03-14T00:09:16;11.91;81.14
72320;SHT30;60269;52.502;16.732;2023-03-14T00:12:49;11.98;81.04
72320;SHT30;60269;52.502;16.732;2023-03-14T00:16:21;11.95;81.41
72320;SHT30;60269;52.502;16.732;2023-03-14T00:19:53;11.82;82.02
72320;SHT30;60269;52.502;16.732;2023-03-14T00:23:27;11.80;82.25
72320;SHT30;60269;52.502;16.732;2023-03-14T00:26:59;11.78;82.44
72320;SHT30;60269;52.502;16.732;2023-03-14T00:30:32;11.77;82.62
72320;SHT30;60269;52.502;16.732;2023-03-14T00:34:04;11.82;82.46
72320;SHT30;60269;52.502;16.732;2023-03-14T00:37:36;11.80;82.75
72320;SHT30;60269;52.502;16.732;2023-03-14T00:41:12;11.74;82.98
72320;SHT30;60269;52.502;16.732;2023-03-14T00:44:45;11.70;83.22
72320;SHT30;60269;52.502;16.732;2023-03-14T00:48:19;11.71;83.45
72320;SHT30;60269;52.502;16.732;2023-03-14T00:51:51;11.68;83.56
72320;SHT30;60269;52.502;16.732;2023-03-14T00:55:24;11.74;83.66
72320;SHT30;60269;52.502;16.732;2023-03-14T00:58:56;11.73;83.86
72320;SHT30;60269;52.502;16.732;2023-03-14T01:02:28;11.70;84.24
72320;SHT30;60269;52.502;16.732;2023-03-14T01:06:12;11.63;84.80
72320;SHT30;60269;52.502;16.732;2023-03-14T01:09:45;11.49;85.51
72320;SHT30;60269;52.502;16.732;2023-03-14T01:13:17;11.60;85.51
72320;SHT30;60269;52.502;16.732;2023-03-14T01:16:49;11.50;86.14
72320;SHT30;60269;52.502;16.732;2023-03-14T01:20:22;11.75;85.95
72320;SHT30;60269;52.502;16.732;2023-03-14T01:23:55;11.66;86.25
72320;SHT30;60269;52.502;16.732;2023-03-14T01:27:28;11.70;86.42
72320;SHT30;60269;52.502;16.732;2023-03-14T01:31:05;11.64;86.89
72320;SHT30;60269;52.502;16.732;2023-03-14T01:34:38;11.67;87.20
72320;SHT30;60269;52.502;16.732;2023-03-14T01:38:10;11.57;87.77
72320;SHT30;60269;52.502;16.732;2023-03-14T01:41:42;11.47;88.43
72320;SHT30;60269;52.502;16.732;2023-03-14T01:49:34;11.24;89.66
72320;SHT30;60269;52.502;16.732;2023-03-14T01:53:07;11.50;89.06
72320;SHT30;60269;52.502;16.732;2023-03-14T01:56:41;11.43;89.61
72320;SHT30;60269;52.502;16.732;2023-03-14T02:00:18;11.43;89.72
72320;SHT30;60269;52.502;16.732;2023-03-14T02:03:54;11.44;90.12
72320;SHT30;60269;52.502;16.732;2023-03-14T02:07:41;11.37;90.36
72320;SHT30;60269;52.502;16.732;2023-03-14T02:11:18;11.43;90.14
72320;SHT30;60269;52.502;16.732;2023-03-14T02:14:50;11.51;88.98
72320;SHT30;60269;52.502;16.732;2023-03-14T02:18:22;11.54;88.80
72320;SHT30;60269;52.502;16.732;2023-03-14T02:29:15;11.54;87.47
72320;SHT30;60269;52.502;16.732;2023-03-14T02:33:01;11.47;87.62
72320;SHT30;60269;52.502;16.732;2023-03-14T02:36:34;11.43;87.77
72320;SHT30;60269;52.502;16.732;2023-03-14T02:40:07;11.44;88.17
72320;SHT30;60269;52.502;16.732;2023-03-14T02:43:40;11.36;89.04
72320;SHT30;60269;52.502;16.732;2023-03-14T02:47:12;11.32;89.78
72320;SHT30;60269;52.502;16.732;2023-03-14T02:50:47;11.02;91.96
72320;SHT30;60269;52.502;16.732;2023-03-14T02:54:22;10.78;93.69
72320;SHT30;60269;52.502;16.732;2023-03-14T02:57:54;10.62;94.44
72320;SHT30;60269;52.502;16.732;2023-03-14T03:01:26;10.58;94.65
72320;SHT30;60269;52.502;16.732;2023-03-14T03:04:59;10.68;94.09
72320;SHT30;60269;52.502;16.732;2023-03-14T03:08:31;10.61;94.31
72320;SHT30;60269;52.502;16.732;2023-03-14T03:12:03;10.62;94.03
72320;SHT30;60269;52.502;16.732;2023-03-14T03:15:35;10.68;93.72
72320;SHT30;60269;52.502;16.732;2023-03-14T03:19:07;10.62;93.85
72320;SHT30;60269;52.502;16.732;2023-03-14T03:22:39;10.62;93.62
72320;SHT30;60269;52.502;16.732;2023-03-14T03:26:12;10.58;93.78
72320;SHT30;60269;52.502;16.732;2023-03-14T03:29:46;10.50;94.07
72320;SHT30;60269;52.502;16.732;2023-03-14T03:33:19;10.54;93.67
72320;SHT30;60269;52.502;16.732;2023-03-14T03:36:51;10.50;93.93
72320;SHT30;60269;52.502;16.732;2023-03-14T03:40:23;10.48;93.62
72320;SHT30;60269;52.502;16.732;2023-03-14T03:43:55;10.50;93.35
72320;SHT30;60269;52.502;16.732;2023-03-14T03:47:27;10.40;93.72
72320;SHT30;60269;52.502;16.732;2023-03-14T03:50:59;10.38;93.89
72320;SHT30;60269;52.502;16.732;2023-03-14T03:54:31;10.18;94.85
72320;SHT30;60269;52.502;16.732;2023-03-14T03:58:03;10.07;95.22
72320;SHT30;60269;52.502;16.732;2023-03-14T04:01:35;9.97;95.18
72320;SHT30;60269;52.502;16.732;2023-03-14T04:05:08;9.86;95.05
72320;SHT30;60269;52.502;16.732;2023-03-14T04:08:40;9.87;94.58
72320;SHT30;60269;52.502;16.732;2023-03-14T04:12:16;9.79;94.21
72320;SHT30;60269;52.502;16.732;2023-03-14T04:15:49;9.71;94.22
72320;SHT30;60269;52.502;16.732;2023-03-14T04:19:21;9.72;93.58
72320;SHT30;60269;52.502;16.732;2023-03-14T04:22:53;9.59;93.46
72320;SHT30;60269;52.502;16.732;2023-03-14T04:26:26;9.58;93.34
72320;SHT30;60269;52.502;16.732;2023-03-14T04:29:57;9.51;93.14
72320;SHT30;60269;52.502;16.732;2023-03-14T04:33:30;9.39;93.11
72320;SHT30;60269;52.502;16.732;2023-03-14T04:37:02;9.44;92.55
72320;SHT30;60269;52.502;16.732;2023-03-14T04:40:37;9.52;91.68
72320;SHT30;60269;52.502;16.732;2023-03-14T04:44:09;9.32;91.99
72320;SHT30;60269;52.502;16.732;2023-03-14T04:47:41;9.26;91.91
72320;SHT30;60269;52.502;16.732;2023-03-14T04:51:13;9.24;91.76
72320;SHT30;60269;52.502;16.732;2023-03-14T04:54:46;9.03;92.24
72320;SHT30;60269;52.502;16.732;2023-03-14T04:58:19;8.91;92.42
72320;SHT30;60269;52.502;16.732;2023-03-14T05:01:51;8.97;91.95
72320;SHT30;60269;52.502;16.732;2023-03-14T05:05:24;8.87;92.22
72320;SHT30;60269;52.502;16.732;2023-03-14T05:08:56;8.94;91.84
72320;SHT30;60269;52.502;16.732;2023-03-14T05:12:28;8.77;92.17
72320;SHT30;60269;52.502;16.732;2023-03-14T05:16:05;8.81;91.73
72320;SHT30;60269;52.502;16.732;2023-03-14T05:19:37;8.96;91.01
72320;SHT30;60269;52.502;16.732;2023-03-14T05:23:09;8.94;90.60
72320;SHT30;60269;52.502;16.732;2023-03-14T05:26:42;8.87;90.42
72320;SHT30;60269;52.502;16.732;2023-03-14T05:30:14;8.87;90.05
72320;SHT30;60269;52.502;16.732;2023-03-14T05:33:46;9.01;89.29
72320;SHT30;60269;52.502;16.732;2023-03-14T05:37:19;8.97;89.52
72320;SHT30;60269;52.502;16.732;2023-03-14T05:40:51;8.89;90.05
72320;SHT30;60269;52.502;16.732;2023-03-14T05:44:24;9.03;89.60
72320;SHT30;60269;52.502;16.732;2023-03-14T05:47:56;9.10;89.48
72320;SHT30;60269;52.502;16.732;2023-03-14T05:51:28;9.00;89.99
72320;SHT30;60269;52.502;16.732;2023-03-14T05:55:00;9.11;89.79
72320;SHT30;60269;52.502;16.732;2023-03-14T05:58:32;9.11;90.05
72320;SHT30;60269;52.502;16.732;2023-03-14T06:02:04;9.16;90.05
72320;SHT30;60269;52.502;16.732;2023-03-14T06:05:36;9.26;89.67
72320;SHT30;60269;52.502;16.732;2023-03-14T06:09:08;9.37;89.55
72320;SHT30;60269;52.502;16.732;2023-03-14T06:12:40;9.39;89.41
72320;SHT30;60269;52.502;16.732;2023-03-14T06:16:12;9.32;89.78
72320;SHT30;60269;52.502;16.732;2023-03-14T06:19:47;9.35;89.80
72320;SHT30;60269;52.502;16.732;2023-03-14T06:23:19;9.48;89.17
72320;SHT30;60269;52.502;16.732;2023-03-14T06:26:54;9.54;89.19
72320;SHT30;60269;52.502;16.732;2023-03-14T06:30:27;9.54;89.42
72320;SHT30;60269;52.502;16.732;2023-03-14T06:33:59;9.54;89.34
72320;SHT30;60269;52.502;16.732;2023-03-14T06:37:31;9.59;89.48
72320;SHT30;60269;52.502;16.732;2023-03-14T06:41:04;9.72;89.24
72320;SHT30;60269;52.502;16.732;2023-03-14T06:44:37;9.83;88.70
72320;SHT30;60269;52.502;16.732;2023-03-14T06:48:09;9.90;88.40
72320;SHT30;60269;52.502;16.732;2023-03-14T06:51:42;9.96;88.47
72320;SHT30;60269;52.502;16.732;2023-03-14T06:55:15;10.09;88.32
72320;SHT30;60269;52.502;16.732;2023-03-14T06:58:47;10.14;87.91
72320;SHT30;60269;52.502;16.732;2023-03-14T07:02:22;10.30;87.66
72320;SHT30;60269;52.502;16.732;2023-03-14T07:06:12;10.34;88.05
72320;SHT30;60269;52.502;16.732;2023-03-14T07:09:44;10.25;88.04
72320;SHT30;60269;52.502;16.732;2023-03-14T07:13:17;10.33;88.00
72320;SHT30;60269;52.502;16.732;2023-03-14T07:16:49;10.37;87.85
72320;SHT30;60269;52.502;16.732;2023-03-14T07:20:21;10.40;87.81
72320;SHT30;60269;52.502;16.732;2023-03-14T07:23:54;10.43;87.56
72320;SHT30;60269;52.502;16.732;2023-03-14T07:27:28;10.43;87.45
72320;SHT30;60269;52.502;16.732;2023-03-14T07:31:00;10.53;87.33
72320;SHT30;60269;52.502;16.732;2023-03-14T07:34:32;10.51;87.69
72320;SHT30;60269;52.502;16.732;2023-03-14T07:38:04;10.54;87.82
72320;SHT30;60269;52.502;16.732;2023-03-14T07:41:38;10.57;87.40
72320;SHT30;60269;52.502;16.732;2023-03-14T07:45:11;10.57;87.25
72320;SHT30;60269;52.502;16.732;2023-03-14T07:48:43;10.64;87.13
72320;SHT30;60269;52.502;16.732;2023-03-14T07:52:15;10.74;86.61
72320;SHT30;60269;52.502;16.732;2023-03-14T07:55:48;10.83;86.27
72320;SHT30;60269;52.502;16.732;2023-03-14T07:59:20;10.92;85.91
72320;SHT30;60269;52.502;16.732;2023-03-14T08:02:52;11.06;85.29
72320;SHT30;60269;52.502;16.732;2023-03-14T08:06:25;11.23;84.65
72320;SHT30;60269;52.502;16.732;2023-03-14T08:09:57;11.34;84.43
72320;SHT30;60269;52.502;16.732;2023-03-14T08:13:29;11.50;83.97
72320;SHT30;60269;52.502;16.732;2023-03-14T08:17:02;11.57;83.56
72320;SHT30;60269;52.502;16.732;2023-03-14T08:20:35;11.77;82.54
72320;SHT30;60269;52.502;16.732;2023-03-14T08:24:08;11.84;82.42
72320;SHT30;60269;52.502;16.732;2023-03-14T08:27:40;11.89;81.88
72320;SHT30;60269;52.502;16.732;2023-03-14T08:31:13;11.94;82.15
72320;SHT30;60269;52.502;16.732;2023-03-14T08:34:48;11.98;81.63
72320;SHT30;60269;52.502;16.732;2023-03-14T08:38:20;12.11;82.44
72320;SHT30;60269;52.502;16.732;2023-03-14T08:41:52;12.19;81.01
72320;SHT30;60269;52.502;16.732;2023-03-14T08:45:25;12.29;80.72
72320;SHT30;60269;52.502;16.732;2023-03-14T08:48:57;12.42;80.07
72320;SHT30;60269;52.502;16.732;2023-03-14T08:52:30;12.29;80.67
72320;SHT30;60269;52.502;16.732;2023-03-14T08:56:03;12.63;79.05
72320;SHT30;60269;52.502;16.732;2023-03-14T08:59:37;12.77;78.04
72320;SHT30;60269;52.502;16.732;2023-03-14T09:03:10;12.86;76.93
72320;SHT30;60269;52.502;16.732;2023-03-14T09:06:42;12.94;76.93
72320;SHT30;60269;52.502;16.732;2023-03-14T09:10:14;13.14;76.15
72320;SHT30;60269;52.502;16.732;2023-03-14T09:13:46;13.11;76.03
72320;SHT30;60269;52.502;16.732;2023-03-14T09:17:20;13.07;75.28
72320;SHT30;60269;52.502;16.732;2023-03-14T09:20:52;12.97;75.75
72320;SHT30;60269;52.502;16.732;2023-03-14T09:24:24;13.04;75.96
72320;SHT30;60269;52.502;16.732;2023-03-14T09:27:56;13.07;74.49
72320;SHT30;60269;52.502;16.732;2023-03-14T09:31:29;13.08;75.06
72320;SHT30;60269;52.502;16.732;2023-03-14T09:35:02;13.12;74.92
72320;SHT30;60269;52.502;16.732;2023-03-14T09:38:34;13.11;75.12
72320;SHT30;60269;52.502;16.732;2023-03-14T09:42:10;13.53;74.15
72320;SHT30;60269;52.502;16.732;2023-03-14T09:45:44;13.93;71.48
72320;SHT30;60269;52.502;16.732;2023-03-14T09:49:21;13.90;71.96
72320;SHT30;60269;52.502;16.732;2023-03-14T09:52:59;13.87;70.56
72320;SHT30;60269;52.502;16.732;2023-03-14T09:56:34;14.27;68.89
72320;SHT30;60269;52.502;16.732;2023-03-14T10:00:19;14.52;69.53
72320;SHT30;60269;52.502;16.732;2023-03-14T10:03:57;14.10;68.85
72320;SHT30;60269;52.502;16.732;2023-03-14T10:07:31;14.22;70.69
72320;SHT30;60269;52.502;16.732;2023-03-14T10:11:04;14.42;69.47
72320;SHT30;60269;52.502;16.732;2023-03-14T10:14:46;14.68;70.11
72320;SHT30;60269;52.502;16.732;2023-03-14T10:18:19;14.65;68.52
72320;SHT30;60269;52.502;16.732;2023-03-14T10:21:53;14.96;68.09
72320;SHT30;60269;52.502;16.732;2023-03-14T10:25:28;14.46;67.60
72320;SHT30;60269;52.502;16.732;2023-03-14T10:29:04;14.46;68.38
72320;SHT30;60269;52.502;16.732;2023-03-14T10:32:45;14.27;68.76
72320;SHT30;60269;52.502;16.732;2023-03-14T10:36:21;14.21;68.53
72320;SHT30;60269;52.502;16.732;2023-03-14T10:39:58;14.14;68.91
72320;SHT30;60269;52.502;16.732;2023-03-14T10:43:37;14.20;70.14
72320;SHT30;60269;52.502;16.732;2023-03-14T10:47:18;14.28;69.21
72320;SHT30;60269;52.502;16.732;2023-03-14T10:54:37;14.07;70.42
72320;SHT30;60269;52.502;16.732;2023-03-14T10:58:23;13.89;71.24
72320;SHT30;60269;52.502;16.732;2023-03-14T11:02:00;13.82;70.15
72320;SHT30;60269;52.502;16.732;2023-03-14T11:05:57;13.76;70.75
72320;SHT30;60269;52.502;16.732;2023-03-14T11:13:39;13.66;70.77
72320;SHT30;60269;52.502;16.732;2023-03-14T11:17:27;13.67;70.68
72320;SHT30;60269;52.502;16.732;2023-03-14T11:36:37;14.25;68.15
72320;SHT30;60269;52.502;16.732;2023-03-14T11:40:35;14.34;66.75
72320;SHT30;60269;52.502;16.732;2023-03-14T11:44:27;14.67;64.37
72320;SHT30;60269;52.502;16.732;2023-03-14T11:51:46;14.42;63.88
72320;SHT30;60269;52.502;16.732;2023-03-14T11:59:01;14.22;62.79
72320;SHT30;60269;52.502;16.732;2023-03-14T12:02:55;14.38;62.91
72320;SHT30;60269;52.502;16.732;2023-03-14T12:06:49;14.62;62.12
72320;SHT30;60269;52.502;16.732;2023-03-14T12:10:21;14.57;61.78
72320;SHT30;60269;52.502;16.732;2023-03-14T12:13:54;14.52;62.11
72320;SHT30;60269;52.502;16.732;2023-03-14T12:17:38;15.14;58.40
72320;SHT30;60269;52.502;16.732;2023-03-14T12:21:12;15.74;57.04
72320;SHT30;60269;52.502;16.732;2023-03-14T12:24:51;16.25;56.21
72320;SHT30;60269;52.502;16.732;2023-03-14T12:28:31;15.86;57.47
72320;SHT30;60269;52.502;16.732;2023-03-14T12:32:09;14.90;58.34
72320;SHT30;60269;52.502;16.732;2023-03-14T12:35:51;14.88;59.13
72320;SHT30;60269;52.502;16.732;2023-03-14T12:43:32;14.49;61.21
72320;SHT30;60269;52.502;16.732;2023-03-14T12:51:16;14.22;63.16
72320;SHT30;60269;52.502;16.732;2023-03-14T12:55:45;14.21;62.49
72320;SHT30;60269;52.502;16.732;2023-03-14T12:59:32;14.42;61.36
72320;SHT30;60269;52.502;16.732;2023-03-14T13:03:18;15.14;60.55
72320;SHT30;60269;52.502;16.732;2023-03-14T13:06:56;15.99;58.78
72320;SHT30;60269;52.502;16.732;2023-03-14T13:10:40;15.95;57.08
72320;SHT30;60269;52.502;16.732;2023-03-14T13:14:15;16.09;57.58
72320;SHT30;60269;52.502;16.732;2023-03-14T13:17:48;15.95;57.64
72320;SHT30;60269;52.502;16.732;2023-03-14T13:21:22;15.99;57.07
72320;SHT30;60269;52.502;16.732;2023-03-14T13:25:03;15.33;59.91
72320;SHT30;60269;52.502;16.732;2023-03-14T13:28:36;14.85;61.15
72320;SHT30;60269;52.502;16.732;2023-03-14T13:32:25;14.65;62.48
72320;SHT30;60269;52.502;16.732;2023-03-14T13:36:01;14.41;63.30
72320;SHT30;60269;52.502;16.732;2023-03-14T13:39:39;14.35;63.29
72320;SHT30;60269;52.502;16.732;2023-03-14T13:43:21;14.24;63.06
72320;SHT30;60269;52.502;16.732;2023-03-14T13:47:16;14.03;64.23
72320;SHT30;60269;52.502;16.732;2023-03-14T13:50:54;13.99;64.71
72320;SHT30;60269;52.502;16.732;2023-03-14T13:54:27;13.94;63.66
72320;SHT30;60269;52.502;16.732;2023-03-14T13:57:59;13.77;64.50
72320;SHT30;60269;52.502;16.732;2023-03-14T14:01:33;13.63;65.68
72320;SHT30;60269;52.502;16.732;2023-03-14T14:05:08;13.59;66.30
72320;SHT30;60269;52.502;16.732;2023-03-14T14:08:41;13.67;65.26
72320;SHT30;60269;52.502;16.732;2023-03-14T14:12:19;13.65;64.49
72320;SHT30;60269;52.502;16.732;2023-03-14T14:15:59;13.69;65.06
72320;SHT30;60269;52.502;16.732;2023-03-14T14:19:34;13.83;64.97
72320;SHT30;60269;52.502;16.732;2023-03-14T14:23:19;13.84;63.63
72320;SHT30;60269;52.502;16.732;2023-03-14T14:27:13;13.70;64.11
72320;SHT30;60269;52.502;16.732;2023-03-14T14:30:46;13.63;64.20
72320;SHT30;60269;52.502;16.732;2023-03-14T14:34:19;13.67;63.51
72320;SHT30;60269;52.502;16.732;2023-03-14T14:37:52;13.72;63.73
72320;SHT30;60269;52.502;16.732;2023-03-14T14:41:29;13.79;63.71
72320;SHT30;60269;52.502;16.732;2023-03-14T14:45:03;13.74;64.02
72320;SHT30;60269;52.502;16.732;2023-03-14T14:48:38;13.76;63.76
72320;SHT30;60269;52.502;16.732;2023-03-14T14:52:22;13.89;64.09
72320;SHT30;60269;52.502;16.732;2023-03-14T14:55:57;13.70;65.89
72320;SHT30;60269;52.502;16.732;2023-03-14T14:59:29;13.15;67.72
72320;SHT30;60269;52.502;16.732;2023-03-14T15:03:04;13.10;68.27
72320;SHT30;60269;52.502;16.732;2023-03-14T15:06:37;13.08;68.15
72320;SHT30;60269;52.502;16.732;2023-03-14T15:10:11;13.10;68.66
72320;SHT30;60269;52.502;16.732;2023-03-14T15:13:43;13.10;69.20
72320;SHT30;60269;52.502;16.732;2023-03-14T15:17:15;13.14;68.87
72320;SHT30;60269;52.502;16.732;2023-03-14T15:20:48;13.83;68.17
72320;SHT30;60269;52.502;16.732;2023-03-14T15:24:20;14.69;65.24
72320;SHT30;60269;52.502;16.732;2023-03-14T15:27:53;14.68;65.18
72320;SHT30;60269;52.502;16.732;2023-03-14T15:31:24;14.55;66.08
72320;SHT30;60269;52.502;16.732;2023-03-14T15:34:57;14.34;67.17
72320;SHT30;60269;52.502;16.732;2023-03-14T15:38:31;13.08;71.13
72320;SHT30;60269;52.502;16.732;2023-03-14T15:42:03;12.60;73.25
72320;SHT30;60269;52.502;16.732;2023-03-14T15:45:35;12.56;73.19
72320;SHT30;60269;52.502;16.732;2023-03-14T15:49:08;12.59;73.44
72320;SHT30;60269;52.502;16.732;2023-03-14T15:52:41;12.61;73.72
72320;SHT30;60269;52.502;16.732;2023-03-14T15:56:16;12.56;73.81
72320;SHT30;60269;52.502;16.732;2023-03-14T15:59:50;12.46;73.88
72320;SHT30;60269;52.502;16.732;2023-03-14T16:03:22;12.40;74.53
72320;SHT30;60269;52.502;16.732;2023-03-14T16:06:54;12.40;73.93
72320;SHT30;60269;52.502;16.732;2023-03-14T16:10:26;12.32;74.41
72320;SHT30;60269;52.502;16.732;2023-03-14T16:14:01;12.15;75.85
72320;SHT30;60269;52.502;16.732;2023-03-14T16:17:33;11.97;77.05
72320;SHT30;60269;52.502;16.732;2023-03-14T16:21:10;11.63;78.84
72320;SHT30;60269;52.502;16.732;2023-03-14T16:24:43;11.13;83.81
72320;SHT30;60269;52.502;16.732;2023-03-14T16:28:15;11.22;85.29
72320;SHT30;60269;52.502;16.732;2023-03-14T16:31:47;10.93;85.97
72320;SHT30;60269;52.502;16.732;2023-03-14T16:35:19;10.88;86.31
72320;SHT30;60269;52.502;16.732;2023-03-14T16:38:51;10.76;86.10
72320;SHT30;60269;52.502;16.732;2023-03-14T16:42:24;10.68;85.68
72320;SHT30;60269;52.502;16.732;2023-03-14T16:45:57;10.64;84.35
72320;SHT30;60269;52.502;16.732;2023-03-14T16:49:31;10.64;83.74
72320;SHT30;60269;52.502;16.732;2023-03-14T16:53:03;10.81;82.47
72320;SHT30;60269;52.502;16.732;2023-03-14T16:56:39;11.05;81.20
72320;SHT30;60269;52.502;16.732;2023-03-14T17:00:11;11.09;81.29
72320;SHT30;60269;52.502;16.732;2023-03-14T17:03:48;10.98;82.07
72320;SHT30;60269;52.502;16.732;2023-03-14T17:07:21;10.93;82.58
72320;SHT30;60269;52.502;16.732;2023-03-14T17:10:53;10.93;82.67
72320;SHT30;60269;52.502;16.732;2023-03-14T17:14:25;10.76;83.25
72320;SHT30;60269;52.502;16.732;2023-03-14T17:18:00;10.60;83.86
72320;SHT30;60269;52.502;16.732;2023-03-14T17:21:33;10.57;84.03
72320;SHT30;60269;52.502;16.732;2023-03-14T17:25:08;10.40;84.71
72320;SHT30;60269;52.502;16.732;2023-03-14T17:28:40;10.50;84.06
72320;SHT30;60269;52.502;16.732;2023-03-14T17:32:14;10.62;83.14
72320;SHT30;60269;52.502;16.732;2023-03-14T17:35:46;10.74;82.58
72320;SHT30;60269;52.502;16.732;2023-03-14T17:39:18;10.74;82.30
72320;SHT30;60269;52.502;16.732;2023-03-14T17:42:51;10.69;82.29
72320;SHT30;60269;52.502;16.732;2023-03-14T17:46:23;10.68;82.33
72320;SHT30;60269;52.502;16.732;2023-03-14T17:49:57;10.69;81.70
72320;SHT30;60269;52.502;16.732;2023-03-14T17:53:29;10.69;81.58
72320;SHT30;60269;52.502;16.732;2023-03-14T17:57:02;10.71;81.63
72320;SHT30;60269;52.502;16.732;2023-03-14T18:00:34;10.72;81.58
72320;SHT30;60269;52.502;16.732;2023-03-14T18:04:07;10.67;82.09
72320;SHT30;60269;52.502;16.732;2023-03-14T18:07:39;10.62;82.15
72320;SHT30;60269;52.502;16.732;2023-03-14T18:11:13;10.58;82.55
72320;SHT30;60269;52.502;16.732;2023-03-14T18:14:45;10.55;83.07
72320;SHT30;60269;52.502;16.732;2023-03-14T18:18:18;10.55;83.05
72320;SHT30;60269;52.502;16.732;2023-03-14T18:21:50;10.51;83.46
72320;SHT30;60269;52.502;16.732;2023-03-14T18:25:23;10.54;83.43
72320;SHT30;60269;52.502;16.732;2023-03-14T18:28:55;10.51;83.60
72320;SHT30;60269;52.502;16.732;2023-03-14T18:32:27;10.40;84.33
72320;SHT30;60269;52.502;16.732;2023-03-14T18:35:59;10.40;84.28
72320;SHT30;60269;52.502;16.732;2023-03-14T18:39:32;10.44;84.12
72320;SHT30;60269;52.502;16.732;2023-03-14T18:43:05;10.33;84.83
72320;SHT30;60269;52.502;16.732;2023-03-14T18:46:37;10.30;84.95
72320;SHT30;60269;52.502;16.732;2023-03-14T18:50:11;10.37;84.81
72320;SHT30;60269;52.502;16.732;2023-03-14T18:53:44;10.41;84.43
72320;SHT30;60269;52.502;16.732;2023-03-14T18:57:18;10.30;85.06
72320;SHT30;60269;52.502;16.732;2023-03-14T19:00:50;10.37;84.58
72320;SHT30;60269;52.502;16.732;2023-03-14T19:04:22;10.41;84.41
72320;SHT30;60269;52.502;16.732;2023-03-14T19:07:54;10.40;84.50
72320;SHT30;60269;52.502;16.732;2023-03-14T19:11:28;10.10;82.04
72320;SHT30;60269;52.502;16.732;2023-03-14T19:15:01;7.49;81.57
72320;SHT30;60269;52.502;16.732;2023-03-14T19:18:34;6.52;83.50
72320;SHT30;60269;52.502;16.732;2023-03-14T19:22:06;5.57;83.93
72320;SHT30;60269;52.502;16.732;2023-03-14T19:25:39;4.85;87.88
72320;SHT30;60269;52.502;16.732;2023-03-14T19:29:12;4.20;92.02
72320;SHT30;60269;52.502;16.732;2023-03-14T19:32:44;3.75;93.47
72320;SHT30;60269;52.502;16.732;2023-03-14T19:36:27;3.21;94.71
72320;SHT30;60269;52.502;16.732;2023-03-14T19:40:00;2.89;96.67
72320;SHT30;60269;52.502;16.732;2023-03-14T19:43:32;2.63;96.56
72320;SHT30;60269;52.502;16.732;2023-03-14T19:47:04;2.20;97.11
72320;SHT30;60269;52.502;16.732;2023-03-14T19:50:37;2.14;98.06
72320;SHT30;60269;52.502;16.732;2023-03-14T19:54:09;2.06;98.20
72320;SHT30;60269;52.502;16.732;2023-03-14T19:57:42;1.60;97.77
72320;SHT30;60269;52.502;16.732;2023-03-14T20:01:24;1.20;98.01
72320;SHT30;60269;52.502;16.732;2023-03-14T20:05:04;0.75;98.85
72320;SHT30;60269;52.502;16.732;2023-03-14T20:08:44;0.70;99.31
72320;SHT30;60269;52.502;16.732;2023-03-14T20:12:22;0.87;99.53
72320;SHT30;60269;52.502;16.732;2023-03-14T20:15:58;1.00;99.39
72320;SHT30;60269;52.502;16.732;2023-03-14T20:19:40;0.90;99.23
72320;SHT30;60269;52.502;16.732;2023-03-14T20:23:52;0.87;99.57
72320;SHT30;60269;52.502;16.732;2023-03-14T20:27:35;0.87;99.51
72320;SHT30;60269;52.502;16.732;2023-03-14T20:31:10;0.76;99.33
72320;SHT30;60269;52.502;16.732;2023-03-14T20:35:12;0.53;99.43
72320;SHT30;60269;52.502;16.732;2023-03-14T20:43:31;0.39;99.81
72320;SHT30;60269;52.502;16.732;2023-03-14T20:47:15;0.41;99.88
72320;SHT30;60269;52.502;16.732;2023-03-14T20:51:08;0.41;99.97
72320;SHT30;60269;52.502;16.732;2023-03-14T20:54:43;0.45;99.99
72320;SHT30;60269;52.502;16.732;2023-03-14T20:58:33;0.50;99.99
72320;SHT30;60269;52.502;16.732;2023-03-14T21:08:19;0.67;99.93
72320;SHT30;60269;52.502;16.732;2023-03-14T21:17:22;0.84;99.39
72320;SHT30;60269;52.502;16.732;2023-03-14T21:21:20;0.91;99.65
72320;SHT30;60269;52.502;16.732;2023-03-14T21:25:19;1.01;99.01
72320;SHT30;60269;52.502;16.732;2023-03-14T21:29:23;1.13;99.23
72320;SHT30;60269;52.502;16.732;2023-03-14T21:33:21;1.18;98.96
72320;SHT30;60269;52.502;16.732;2023-03-14T21:36:55;1.18;98.96
72320;SHT30;60269;52.502;16.732;2023-03-14T21:43:12;1.14;99.01
72320;SHT30;60269;52.502;16.732;2023-03-14T21:46:50;1.11;99.04
72320;SHT30;60269;52.502;16.732;2023-03-14T21:50:25;1.20;98.96
72320;SHT30;60269;52.502;16.732;2023-03-14T21:53:57;1.28;98.74
72320;SHT30;60269;52.502;16.732;2023-03-14T21:57:31;1.28;98.58
72320;SHT30;60269;52.502;16.732;2023-03-14T22:01:05;1.32;98.60
72320;SHT30;60269;52.502;16.732;2023-03-14T22:04:38;1.39;97.85
72320;SHT30;60269;52.502;16.732;2023-03-14T22:08:12;1.39;98.00
72320;SHT30;60269;52.502;16.732;2023-03-14T22:11:44;1.41;97.63
72320;SHT30;60269;52.502;16.732;2023-03-14T22:15:17;1.41;97.91
72320;SHT30;60269;52.502;16.732;2023-03-14T22:18:50;1.39;97.92
72320;SHT30;60269;52.502;16.732;2023-03-14T22:22:22;1.36;98.05
72320;SHT30;60269;52.502;16.732;2023-03-14T22:25:58;1.38;97.37
72320;SHT30;60269;52.502;16.732;2023-03-14T22:29:30;1.30;97.60
72320;SHT30;60269;52.502;16.732;2023-03-14T22:33:02;1.31;97.43
72320;SHT30;60269;52.502;16.732;2023-03-14T22:36:34;1.25;97.73
72320;SHT30;60269;52.502;16.732;2023-03-14T22:40:06;1.28;97.61
72320;SHT30;60269;52.502;16.732;2023-03-14T22:43:39;1.27;97.83
72320;SHT30;60269;52.502;16.732;2023-03-14T22:47:11;1.30;97.85
72320;SHT30;60269;52.502;16.732;2023-03-14T22:50:43;1.36;97.34
72320;SHT30;60269;52.502;16.732;2023-03-14T22:54:15;1.41;97.24
72320;SHT30;60269;52.502;16.732;2023-03-14T22:57:50;1.38;97.36
72320;SHT30;60269;52.502;16.732;2023-03-14T23:01:23;1.35;97.56
72320;SHT30;60269;52.502;16.732;2023-03-14T23:04:55;1.36;97.45
72320;SHT30;60269;52.502;16.732;2023-03-14T23:08:27;1.38;97.16
72320;SHT30;60269;52.502;16.732;2023-03-14T23:11:59;1.30;97.12
72320;SHT30;60269;52.502;16.732;2023-03-14T23:15:32;1.20;97.27
72320;SHT30;60269;52.502;16.732;2023-03-14T23:19:04;1.18;97.23
72320;SHT30;60269;52.502;16.732;2023-03-14T23:22:36;1.20;97.35
72320;SHT30;60269;52.502;16.732;2023-03-14T23:26:09;1.15;97.50
72320;SHT30;60269;52.502;16.732;2023-03-14T23:29:44;1.24;97.23
72320;SHT30;60269;52.502;16.732;2023-03-14T23:33:16;1.25;97.16